sensor_id;sensor_type;location;lat;lon;timestamp;P1;durP1;ratioP1;P2;durP2;ratioP2
59587;SDS011;45412;54.472;18.464;2023-07-29T00:01:12;11.50;;;7.50;;
59587;SDS011;45412;54.472;18.464;2023-07-29T00:03:59;12.80;;;7.20;;
59587;SDS011;45412;54.472;18.464;2023-07-29T00:06:46;12.00;;;7.10;;
59587;SDS011;45412;54.472;18.464;2023-07-29T00:09:32;14.30;;;7.50;;
59587;SDS011;45412;54.472;18.464;2023-07-29T00:12:19;13.50;;;7.40;;
59587;SDS011;45412;54.472;18.464;2023-07-29T00:15:06;13.20;;;7.60;;
59587;SDS011;45412;54.472;18.464;2023-07-29T00:17:55;12.80;;;8.10;;
59587;SDS011;45412;54.472;18.464;2023-07-29T00:20:41;12.90;;;7.80;;
59587;SDS011;45412;54.472;18.464;2023-07-29T00:23:29;14.70;;;8.10;;
59587;SDS011;45412;54.472;18.464;2023-07-29T00:26:16;13.60;;;7.50;;
59587;SDS011;45412;54.472;18.464;2023-07-29T00:29:08;13.50;;;8.10;;
59587;SDS011;45412;54.472;18.464;2023-07-29T00:31:55;12.80;;;8.40;;
59587;SDS011;45412;54.472;18.464;2023-07-29T00:34:43;14.20;;;8.20;;
59587;SDS011;45412;54.472;18.464;2023-07-29T00:37:31;12.80;;;8.10;;
59587;SDS011;45412;54.472;18.464;2023-07-29T00:40:22;15.20;;;8.20;;
59587;SDS011;45412;54.472;18.464;2023-07-29T00:43:09;14.40;;;7.70;;
59587;SDS011;45412;54.472;18.464;2023-07-29T00:45:56;14.00;;;8.10;;
59587;SDS011;45412;54.472;18.464;2023-07-29T00:48:46;13.90;;;8.40;;
59587;SDS011;45412;54.472;18.464;2023-07-29T00:51:33;13.20;;;7.90;;
59587;SDS011;45412;54.472;18.464;2023-07-29T00:54:19;15.60;;;8.10;;
59587;SDS011;45412;54.472;18.464;2023-07-29T00:57:11;12.80;;;7.50;;
59587;SDS011;45412;54.472;18.464;2023-07-29T01:00:02;15.70;;;8.40;;
59587;SDS011;45412;54.472;18.464;2023-07-29T01:02:50;15.40;;;8.10;;
59587;SDS011;45412;54.472;18.464;2023-07-29T01:05:59;15.10;;;8.30;;
59587;SDS011;45412;54.472;18.464;2023-07-29T01:09:04;14.40;;;8.20;;
59587;SDS011;45412;54.472;18.464;2023-07-29T01:12:08;15.10;;;8.40;;
59587;SDS011;45412;54.472;18.464;2023-07-29T01:18:23;13.00;;;8.90;;
59587;SDS011;45412;54.472;18.464;2023-07-29T01:21:19;14.40;;;8.50;;
59587;SDS011;45412;54.472;18.464;2023-07-29T01:24:09;16.30;;;8.50;;
59587;SDS011;45412;54.472;18.464;2023-07-29T01:26:55;15.30;;;9.20;;
59587;SDS011;45412;54.472;18.464;2023-07-29T01:29:42;14.90;;;8.50;;
59587;SDS011;45412;54.472;18.464;2023-07-29T01:35:44;14.20;;;8.30;;
59587;SDS011;45412;54.472;18.464;2023-07-29T01:38:36;18.90;;;11.00;;
59587;SDS011;45412;54.472;18.464;2023-07-29T01:41:25;14.20;;;8.50;;
59587;SDS011;45412;54.472;18.464;2023-07-29T01:44:13;15.40;;;8.10;;
59587;SDS011;45412;54.472;18.464;2023-07-29T01:47:01;13.30;;;8.10;;
59587;SDS011;45412;54.472;18.464;2023-07-29T01:49:48;13.70;;;8.40;;
59587;SDS011;45412;54.472;18.464;2023-07-29T01:52:35;14.30;;;8.50;;
59587;SDS011;45412;54.472;18.464;2023-07-29T01:55:22;13.10;;;7.60;;
59587;SDS011;45412;54.472;18.464;2023-07-29T01:58:08;14.10;;;8.50;;
59587;SDS011;45412;54.472;18.464;2023-07-29T02:00:56;14.20;;;8.00;;
59587;SDS011;45412;54.472;18.464;2023-07-29T02:03:44;13.40;;;8.10;;
59587;SDS011;45412;54.472;18.464;2023-07-29T02:06:31;14.00;;;8.60;;
59587;SDS011;45412;54.472;18.464;2023-07-29T02:09:19;12.10;;;7.50;;
59587;SDS011;45412;54.472;18.464;2023-07-29T02:12:06;13.70;;;8.30;;
59587;SDS011;45412;54.472;18.464;2023-07-29T02:14:56;13.10;;;8.00;;
59587;SDS011;45412;54.472;18.464;2023-07-29T02:17:43;15.10;;;8.40;;
59587;SDS011;45412;54.472;18.464;2023-07-29T02:20:36;14.00;;;8.00;;
59587;SDS011;45412;54.472;18.464;2023-07-29T02:23:23;13.50;;;8.50;;
59587;SDS011;45412;54.472;18.464;2023-07-29T02:26:11;15.10;;;8.20;;
59587;SDS011;45412;54.472;18.464;2023-07-29T02:28:58;13.30;;;8.20;;
59587;SDS011;45412;54.472;18.464;2023-07-29T02:31:45;11.70;;;7.10;;
59587;SDS011;45412;54.472;18.464;2023-07-29T02:34:31;13.00;;;7.80;;
59587;SDS011;45412;54.472;18.464;2023-07-29T02:37:18;13.80;;;8.50;;
59587;SDS011;45412;54.472;18.464;2023-07-29T02:40:05;13.00;;;7.90;;
59587;SDS011;45412;54.472;18.464;2023-07-29T02:42:53;14.20;;;8.20;;
59587;SDS011;45412;54.472;18.464;2023-07-29T02:45:41;13.90;;;8.20;;
59587;SDS011;45412;54.472;18.464;2023-07-29T02:48:28;13.70;;;8.20;;
59587;SDS011;45412;54.472;18.464;2023-07-29T02:51:15;14.20;;;8.40;;
59587;SDS011;45412;54.472;18.464;2023-07-29T02:54:01;15.70;;;8.20;;
59587;SDS011;45412;54.472;18.464;2023-07-29T02:56:49;14.70;;;8.10;;
59587;SDS011;45412;54.472;18.464;2023-07-29T02:59:37;12.10;;;7.60;;
59587;SDS011;45412;54.472;18.464;2023-07-29T03:02:24;12.60;;;7.50;;
59587;SDS011;45412;54.472;18.464;2023-07-29T03:05:13;14.50;;;8.20;;
59587;SDS011;45412;54.472;18.464;2023-07-29T03:08:00;14.50;;;8.70;;
59587;SDS011;45412;54.472;18.464;2023-07-29T03:10:47;13.00;;;8.30;;
59587;SDS011;45412;54.472;18.464;2023-07-29T03:13:34;14.60;;;9.70;;
59587;SDS011;45412;54.472;18.464;2023-07-29T03:16:22;13.90;;;8.10;;
59587;SDS011;45412;54.472;18.464;2023-07-29T03:19:12;13.60;;;8.20;;
59587;SDS011;45412;54.472;18.464;2023-07-29T03:21:59;14.10;;;8.60;;
59587;SDS011;45412;54.472;18.464;2023-07-29T03:24:46;14.00;;;8.00;;
59587;SDS011;45412;54.472;18.464;2023-07-29T03:27:32;12.20;;;7.50;;
59587;SDS011;45412;54.472;18.464;2023-07-29T03:30:21;14.10;;;7.90;;
59587;SDS011;45412;54.472;18.464;2023-07-29T03:33:09;12.30;;;6.80;;
59587;SDS011;45412;54.472;18.464;2023-07-29T03:35:57;13.70;;;8.30;;
59587;SDS011;45412;54.472;18.464;2023-07-29T03:38:43;13.30;;;8.60;;
59587;SDS011;45412;54.472;18.464;2023-07-29T03:41:31;13.90;;;8.50;;
59587;SDS011;45412;54.472;18.464;2023-07-29T03:44:18;16.20;;;8.10;;
59587;SDS011;45412;54.472;18.464;2023-07-29T03:47:07;13.20;;;7.70;;
59587;SDS011;45412;54.472;18.464;2023-07-29T03:49:54;15.40;;;10.10;;
59587;SDS011;45412;54.472;18.464;2023-07-29T03:52:42;15.00;;;9.50;;
59587;SDS011;45412;54.472;18.464;2023-07-29T03:55:28;15.60;;;8.00;;
59587;SDS011;45412;54.472;18.464;2023-07-29T03:58:18;14.30;;;8.40;;
59587;SDS011;45412;54.472;18.464;2023-07-29T04:01:04;14.90;;;9.00;;
59587;SDS011;45412;54.472;18.464;2023-07-29T04:03:52;13.60;;;8.70;;
59587;SDS011;45412;54.472;18.464;2023-07-29T04:06:39;13.20;;;7.80;;
59587;SDS011;45412;54.472;18.464;2023-07-29T04:09:27;13.60;;;7.90;;
59587;SDS011;45412;54.472;18.464;2023-07-29T04:12:15;13.50;;;8.20;;
59587;SDS011;45412;54.472;18.464;2023-07-29T04:15:07;14.80;;;7.80;;
59587;SDS011;45412;54.472;18.464;2023-07-29T04:17:54;13.20;;;8.00;;
59587;SDS011;45412;54.472;18.464;2023-07-29T04:20:40;12.60;;;7.30;;
59587;SDS011;45412;54.472;18.464;2023-07-29T04:23:28;12.80;;;7.50;;
59587;SDS011;45412;54.472;18.464;2023-07-29T04:26:14;11.30;;;6.20;;
59587;SDS011;45412;54.472;18.464;2023-07-29T04:29:01;12.50;;;7.80;;
59587;SDS011;45412;54.472;18.464;2023-07-29T04:31:50;14.80;;;7.10;;
59587;SDS011;45412;54.472;18.464;2023-07-29T04:34:37;12.00;;;7.10;;
59587;SDS011;45412;54.472;18.464;2023-07-29T04:37:26;13.30;;;7.50;;
59587;SDS011;45412;54.472;18.464;2023-07-29T04:40:13;12.80;;;7.90;;
59587;SDS011;45412;54.472;18.464;2023-07-29T04:43:02;13.10;;;7.20;;
59587;SDS011;45412;54.472;18.464;2023-07-29T04:45:49;13.40;;;7.60;;
59587;SDS011;45412;54.472;18.464;2023-07-29T04:48:37;12.80;;;7.50;;
59587;SDS011;45412;54.472;18.464;2023-07-29T04:51:25;13.40;;;7.80;;
59587;SDS011;45412;54.472;18.464;2023-07-29T04:54:13;12.40;;;7.30;;
59587;SDS011;45412;54.472;18.464;2023-07-29T04:57:01;11.40;;;6.50;;
59587;SDS011;45412;54.472;18.464;2023-07-29T04:59:48;11.60;;;7.00;;
59587;SDS011;45412;54.472;18.464;2023-07-29T05:02:35;12.20;;;7.10;;
59587;SDS011;45412;54.472;18.464;2023-07-29T05:05:22;10.40;;;6.30;;
59587;SDS011;45412;54.472;18.464;2023-07-29T05:08:09;11.20;;;6.20;;
59587;SDS011;45412;54.472;18.464;2023-07-29T05:10:59;10.80;;;5.90;;
59587;SDS011;45412;54.472;18.464;2023-07-29T05:13:45;11.40;;;6.70;;
59587;SDS011;45412;54.472;18.464;2023-07-29T05:16:32;10.60;;;5.50;;
59587;SDS011;45412;54.472;18.464;2023-07-29T05:19:19;12.60;;;6.50;;
59587;SDS011;45412;54.472;18.464;2023-07-29T05:22:07;11.50;;;5.70;;
59587;SDS011;45412;54.472;18.464;2023-07-29T05:25:01;9.60;;;5.40;;
59587;SDS011;45412;54.472;18.464;2023-07-29T05:27:50;9.60;;;4.90;;
59587;SDS011;45412;54.472;18.464;2023-07-29T05:30:40;7.80;;;4.50;;
59587;SDS011;45412;54.472;18.464;2023-07-29T05:33:30;7.40;;;4.00;;
59587;SDS011;45412;54.472;18.464;2023-07-29T05:36:17;8.70;;;3.70;;
59587;SDS011;45412;54.472;18.464;2023-07-29T05:39:03;7.20;;;3.50;;
59587;SDS011;45412;54.472;18.464;2023-07-29T05:41:50;7.00;;;3.30;;
59587;SDS011;45412;54.472;18.464;2023-07-29T05:44:37;8.10;;;3.50;;
59587;SDS011;45412;54.472;18.464;2023-07-29T05:47:23;7.20;;;3.20;;
59587;SDS011;45412;54.472;18.464;2023-07-29T05:50:10;7.30;;;3.30;;
59587;SDS011;45412;54.472;18.464;2023-07-29T05:52:56;6.20;;;2.80;;
59587;SDS011;45412;54.472;18.464;2023-07-29T05:55:46;8.90;;;3.30;;
59587;SDS011;45412;54.472;18.464;2023-07-29T05:58:33;8.00;;;2.70;;
59587;SDS011;45412;54.472;18.464;2023-07-29T06:01:25;6.60;;;2.70;;
59587;SDS011;45412;54.472;18.464;2023-07-29T06:04:15;6.80;;;2.70;;
59587;SDS011;45412;54.472;18.464;2023-07-29T06:07:03;6.60;;;2.70;;
59587;SDS011;45412;54.472;18.464;2023-07-29T06:09:50;6.50;;;2.60;;
59587;SDS011;45412;54.472;18.464;2023-07-29T06:12:39;6.60;;;2.40;;
59587;SDS011;45412;54.472;18.464;2023-07-29T06:15:26;6.40;;;2.50;;
59587;SDS011;45412;54.472;18.464;2023-07-29T06:18:13;7.10;;;2.70;;
59587;SDS011;45412;54.472;18.464;2023-07-29T06:21:00;6.30;;;2.30;;
59587;SDS011;45412;54.472;18.464;2023-07-29T06:23:50;6.30;;;2.00;;
59587;SDS011;45412;54.472;18.464;2023-07-29T06:26:37;6.20;;;2.30;;
59587;SDS011;45412;54.472;18.464;2023-07-29T06:29:24;8.50;;;2.30;;
59587;SDS011;45412;54.472;18.464;2023-07-29T06:32:13;7.90;;;2.10;;
59587;SDS011;45412;54.472;18.464;2023-07-29T06:35:07;7.50;;;2.30;;
59587;SDS011;45412;54.472;18.464;2023-07-29T06:37:54;7.00;;;1.90;;
59587;SDS011;45412;54.472;18.464;2023-07-29T06:40:41;6.50;;;1.80;;
59587;SDS011;45412;54.472;18.464;2023-07-29T06:43:29;7.10;;;1.80;;
59587;SDS011;45412;54.472;18.464;2023-07-29T06:46:17;6.80;;;2.20;;
59587;SDS011;45412;54.472;18.464;2023-07-29T06:49:05;6.00;;;1.70;;
59587;SDS011;45412;54.472;18.464;2023-07-29T06:51:53;5.70;;;1.80;;
59587;SDS011;45412;54.472;18.464;2023-07-29T06:54:41;6.80;;;1.70;;
59587;SDS011;45412;54.472;18.464;2023-07-29T06:57:34;6.70;;;1.70;;
59587;SDS011;45412;54.472;18.464;2023-07-29T07:00:22;6.20;;;1.70;;
59587;SDS011;45412;54.472;18.464;2023-07-29T07:03:09;7.60;;;1.70;;
59587;SDS011;45412;54.472;18.464;2023-07-29T07:05:56;5.60;;;1.80;;
59587;SDS011;45412;54.472;18.464;2023-07-29T07:08:44;6.00;;;1.80;;
59587;SDS011;45412;54.472;18.464;2023-07-29T07:11:31;6.10;;;1.70;;
59587;SDS011;45412;54.472;18.464;2023-07-29T07:14:25;5.80;;;1.60;;
59587;SDS011;45412;54.472;18.464;2023-07-29T07:17:12;6.00;;;1.60;;
59587;SDS011;45412;54.472;18.464;2023-07-29T07:20:08;6.00;;;1.50;;
59587;SDS011;45412;54.472;18.464;2023-07-29T07:23:09;6.60;;;1.80;;
59587;SDS011;45412;54.472;18.464;2023-07-29T07:26:00;6.60;;;1.70;;
59587;SDS011;45412;54.472;18.464;2023-07-29T07:28:52;6.90;;;1.70;;
59587;SDS011;45412;54.472;18.464;2023-07-29T07:31:51;8.30;;;2.20;;
59587;SDS011;45412;54.472;18.464;2023-07-29T07:34:52;6.10;;;1.80;;
59587;SDS011;45412;54.472;18.464;2023-07-29T07:37:38;6.80;;;2.30;;
59587;SDS011;45412;54.472;18.464;2023-07-29T07:40:33;5.90;;;1.80;;
59587;SDS011;45412;54.472;18.464;2023-07-29T07:43:31;7.00;;;2.00;;
59587;SDS011;45412;54.472;18.464;2023-07-29T07:46:30;9.60;;;4.10;;
59587;SDS011;45412;54.472;18.464;2023-07-29T07:49:26;7.90;;;2.20;;
59587;SDS011;45412;54.472;18.464;2023-07-29T07:52:24;6.30;;;1.70;;
59587;SDS011;45412;54.472;18.464;2023-07-29T07:55:16;8.70;;;2.60;;
59587;SDS011;45412;54.472;18.464;2023-07-29T07:58:08;8.00;;;2.70;;
59587;SDS011;45412;54.472;18.464;2023-07-29T08:01:04;6.20;;;2.00;;
59587;SDS011;45412;54.472;18.464;2023-07-29T08:03:52;6.50;;;2.00;;
59587;SDS011;45412;54.472;18.464;2023-07-29T08:06:44;6.30;;;2.00;;
59587;SDS011;45412;54.472;18.464;2023-07-29T08:09:35;6.50;;;1.70;;
59587;SDS011;45412;54.472;18.464;2023-07-29T08:12:22;7.50;;;1.90;;
59587;SDS011;45412;54.472;18.464;2023-07-29T08:15:16;7.90;;;2.10;;
59587;SDS011;45412;54.472;18.464;2023-07-29T08:18:05;8.40;;;1.90;;
59587;SDS011;45412;54.472;18.464;2023-07-29T08:20:57;6.70;;;1.80;;
59587;SDS011;45412;54.472;18.464;2023-07-29T08:23:45;6.30;;;2.00;;
59587;SDS011;45412;54.472;18.464;2023-07-29T08:26:32;8.40;;;1.70;;
59587;SDS011;45412;54.472;18.464;2023-07-29T08:29:19;9.50;;;2.30;;
59587;SDS011;45412;54.472;18.464;2023-07-29T08:32:11;7.40;;;2.00;;
59587;SDS011;45412;54.472;18.464;2023-07-29T08:35:00;6.30;;;1.80;;
59587;SDS011;45412;54.472;18.464;2023-07-29T08:38:13;6.30;;;1.70;;
59587;SDS011;45412;54.472;18.464;2023-07-29T08:41:14;7.20;;;2.10;;
59587;SDS011;45412;54.472;18.464;2023-07-29T08:47:13;7.10;;;1.80;;
59587;SDS011;45412;54.472;18.464;2023-07-29T08:50:03;7.00;;;1.70;;
59587;SDS011;45412;54.472;18.464;2023-07-29T08:52:55;5.40;;;1.60;;
59587;SDS011;45412;54.472;18.464;2023-07-29T08:55:50;6.00;;;1.90;;
59587;SDS011;45412;54.472;18.464;2023-07-29T08:58:40;6.30;;;1.70;;
59587;SDS011;45412;54.472;18.464;2023-07-29T09:01:28;5.60;;;1.60;;
59587;SDS011;45412;54.472;18.464;2023-07-29T09:04:19;6.20;;;1.90;;
59587;SDS011;45412;54.472;18.464;2023-07-29T09:07:09;6.60;;;1.60;;
59587;SDS011;45412;54.472;18.464;2023-07-29T09:11:43;5.90;;;1.90;;
59587;SDS011;45412;54.472;18.464;2023-07-29T09:14:44;9.60;;;3.60;;
59587;SDS011;45412;54.472;18.464;2023-07-29T09:17:33;5.40;;;1.80;;
59587;SDS011;45412;54.472;18.464;2023-07-29T09:20:35;6.00;;;1.80;;
59587;SDS011;45412;54.472;18.464;2023-07-29T09:23:24;8.00;;;2.10;;
59587;SDS011;45412;54.472;18.464;2023-07-29T09:26:24;9.00;;;2.70;;
59587;SDS011;45412;54.472;18.464;2023-07-29T09:29:12;6.10;;;1.60;;
59587;SDS011;45412;54.472;18.464;2023-07-29T09:32:25;5.90;;;1.80;;
59587;SDS011;45412;54.472;18.464;2023-07-29T09:35:14;8.30;;;3.10;;
59587;SDS011;45412;54.472;18.464;2023-07-29T09:38:03;7.00;;;1.90;;
59587;SDS011;45412;54.472;18.464;2023-07-29T09:41:01;6.70;;;2.10;;
59587;SDS011;45412;54.472;18.464;2023-07-29T09:43:59;5.90;;;2.00;;
59587;SDS011;45412;54.472;18.464;2023-07-29T09:46:47;7.00;;;2.30;;
59587;SDS011;45412;54.472;18.464;2023-07-29T09:49:38;6.40;;;1.80;;
59587;SDS011;45412;54.472;18.464;2023-07-29T09:52:46;7.00;;;1.70;;
59587;SDS011;45412;54.472;18.464;2023-07-29T09:55:40;6.50;;;2.00;;
59587;SDS011;45412;54.472;18.464;2023-07-29T09:58:35;6.80;;;1.60;;
59587;SDS011;45412;54.472;18.464;2023-07-29T10:01:30;7.00;;;1.50;;
59587;SDS011;45412;54.472;18.464;2023-07-29T10:04:18;5.40;;;1.50;;
59587;SDS011;45412;54.472;18.464;2023-07-29T10:07:36;5.30;;;1.30;;
59587;SDS011;45412;54.472;18.464;2023-07-29T10:10:25;6.40;;;1.70;;
59587;SDS011;45412;54.472;18.464;2023-07-29T10:13:16;6.00;;;1.50;;
59587;SDS011;45412;54.472;18.464;2023-07-29T10:16:47;6.20;;;2.00;;
59587;SDS011;45412;54.472;18.464;2023-07-29T10:19:52;5.30;;;1.50;;
59587;SDS011;45412;54.472;18.464;2023-07-29T10:22:44;5.70;;;1.60;;
59587;SDS011;45412;54.472;18.464;2023-07-29T10:25:43;5.90;;;1.50;;
59587;SDS011;45412;54.472;18.464;2023-07-29T10:28:41;5.30;;;1.40;;
59587;SDS011;45412;54.472;18.464;2023-07-29T10:31:36;6.80;;;1.90;;
59587;SDS011;45412;54.472;18.464;2023-07-29T10:34:26;7.00;;;1.80;;
59587;SDS011;45412;54.472;18.464;2023-07-29T10:37:20;6.30;;;1.60;;
59587;SDS011;45412;54.472;18.464;2023-07-29T10:40:11;7.60;;;1.90;;
59587;SDS011;45412;54.472;18.464;2023-07-29T10:43:24;7.30;;;2.00;;
59587;SDS011;45412;54.472;18.464;2023-07-29T10:49:06;6.60;;;1.80;;
59587;SDS011;45412;54.472;18.464;2023-07-29T10:51:56;5.70;;;1.70;;
59587;SDS011;45412;54.472;18.464;2023-07-29T10:54:57;6.00;;;1.70;;
59587;SDS011;45412;54.472;18.464;2023-07-29T10:57:49;5.50;;;1.70;;
59587;SDS011;45412;54.472;18.464;2023-07-29T11:00:46;6.30;;;1.70;;
59587;SDS011;45412;54.472;18.464;2023-07-29T11:03:34;6.20;;;1.80;;
59587;SDS011;45412;54.472;18.464;2023-07-29T11:06:25;6.20;;;1.80;;
59587;SDS011;45412;54.472;18.464;2023-07-29T11:09:42;5.50;;;1.60;;
59587;SDS011;45412;54.472;18.464;2023-07-29T11:12:57;7.40;;;1.90;;
59587;SDS011;45412;54.472;18.464;2023-07-29T11:15:46;5.70;;;1.50;;
59587;SDS011;45412;54.472;18.464;2023-07-29T11:19:13;5.20;;;1.50;;
59587;SDS011;45412;54.472;18.464;2023-07-29T11:22:07;6.40;;;1.40;;
59587;SDS011;45412;54.472;18.464;2023-07-29T11:25:02;5.30;;;1.50;;
59587;SDS011;45412;54.472;18.464;2023-07-29T11:27:53;5.80;;;1.70;;
59587;SDS011;45412;54.472;18.464;2023-07-29T11:30:52;6.50;;;1.60;;
59587;SDS011;45412;54.472;18.464;2023-07-29T11:33:53;8.30;;;1.80;;
59587;SDS011;45412;54.472;18.464;2023-07-29T11:36:51;5.70;;;1.50;;
59587;SDS011;45412;54.472;18.464;2023-07-29T11:39:40;7.00;;;1.80;;
59587;SDS011;45412;54.472;18.464;2023-07-29T11:42:27;6.70;;;1.70;;
59587;SDS011;45412;54.472;18.464;2023-07-29T11:45:14;6.30;;;1.80;;
59587;SDS011;45412;54.472;18.464;2023-07-29T11:48:06;5.30;;;1.60;;
59587;SDS011;45412;54.472;18.464;2023-07-29T11:50:53;6.70;;;1.90;;
59587;SDS011;45412;54.472;18.464;2023-07-29T11:53:44;6.50;;;1.80;;
59587;SDS011;45412;54.472;18.464;2023-07-29T11:56:31;6.00;;;1.90;;
59587;SDS011;45412;54.472;18.464;2023-07-29T11:59:20;6.00;;;2.00;;
59587;SDS011;45412;54.472;18.464;2023-07-29T12:02:14;6.70;;;1.90;;
59587;SDS011;45412;54.472;18.464;2023-07-29T12:05:08;6.20;;;1.60;;
59587;SDS011;45412;54.472;18.464;2023-07-29T12:07:56;6.70;;;1.80;;
59587;SDS011;45412;54.472;18.464;2023-07-29T12:10:43;5.60;;;1.70;;
59587;SDS011;45412;54.472;18.464;2023-07-29T12:13:30;6.40;;;1.60;;
59587;SDS011;45412;54.472;18.464;2023-07-29T12:16:18;6.70;;;1.70;;
59587;SDS011;45412;54.472;18.464;2023-07-29T12:19:13;6.30;;;2.00;;
59587;SDS011;45412;54.472;18.464;2023-07-29T12:22:26;6.80;;;2.20;;
59587;SDS011;45412;54.472;18.464;2023-07-29T12:25:28;6.50;;;2.00;;
59587;SDS011;45412;54.472;18.464;2023-07-29T12:28:27;7.50;;;2.30;;
59587;SDS011;45412;54.472;18.464;2023-07-29T12:31:15;6.50;;;2.10;;
59587;SDS011;45412;54.472;18.464;2023-07-29T12:34:19;5.90;;;1.80;;
59587;SDS011;45412;54.472;18.464;2023-07-29T12:37:12;6.20;;;2.20;;
59587;SDS011;45412;54.472;18.464;2023-07-29T12:40:01;6.90;;;2.40;;
59587;SDS011;45412;54.472;18.464;2023-07-29T12:43:09;5.90;;;2.30;;
59587;SDS011;45412;54.472;18.464;2023-07-29T12:46:11;5.70;;;2.10;;
59587;SDS011;45412;54.472;18.464;2023-07-29T12:48:59;6.60;;;2.30;;
59587;SDS011;45412;54.472;18.464;2023-07-29T12:51:46;6.20;;;2.20;;
59587;SDS011;45412;54.472;18.464;2023-07-29T12:54:32;7.70;;;2.20;;
59587;SDS011;45412;54.472;18.464;2023-07-29T12:57:19;7.50;;;2.30;;
59587;SDS011;45412;54.472;18.464;2023-07-29T13:00:06;6.80;;;2.10;;
59587;SDS011;45412;54.472;18.464;2023-07-29T13:02:55;6.40;;;2.30;;
59587;SDS011;45412;54.472;18.464;2023-07-29T13:05:43;6.50;;;1.80;;
59587;SDS011;45412;54.472;18.464;2023-07-29T13:08:32;6.30;;;2.10;;
59587;SDS011;45412;54.472;18.464;2023-07-29T13:11:18;6.60;;;2.20;;
59587;SDS011;45412;54.472;18.464;2023-07-29T13:14:08;5.60;;;1.90;;
59587;SDS011;45412;54.472;18.464;2023-07-29T13:16:55;6.40;;;2.20;;
59587;SDS011;45412;54.472;18.464;2023-07-29T13:19:43;6.50;;;2.10;;
59587;SDS011;45412;54.472;18.464;2023-07-29T13:22:30;5.60;;;2.10;;
59587;SDS011;45412;54.472;18.464;2023-07-29T13:25:17;5.90;;;2.10;;
59587;SDS011;45412;54.472;18.464;2023-07-29T13:28:03;7.10;;;2.30;;
59587;SDS011;45412;54.472;18.464;2023-07-29T13:30:50;6.30;;;2.20;;
59587;SDS011;45412;54.472;18.464;2023-07-29T13:33:38;7.70;;;2.20;;
59587;SDS011;45412;54.472;18.464;2023-07-29T13:36:25;6.20;;;2.20;;
59587;SDS011;45412;54.472;18.464;2023-07-29T13:39:14;7.30;;;2.10;;
59587;SDS011;45412;54.472;18.464;2023-07-29T13:42:06;7.10;;;2.40;;
59587;SDS011;45412;54.472;18.464;2023-07-29T13:44:53;5.70;;;2.10;;
59587;SDS011;45412;54.472;18.464;2023-07-29T13:47:40;7.10;;;2.10;;
59587;SDS011;45412;54.472;18.464;2023-07-29T13:50:33;6.70;;;2.10;;
59587;SDS011;45412;54.472;18.464;2023-07-29T13:53:26;7.70;;;2.20;;
59587;SDS011;45412;54.472;18.464;2023-07-29T13:56:12;6.00;;;2.10;;
59587;SDS011;45412;54.472;18.464;2023-07-29T13:58:59;5.70;;;2.00;;
59587;SDS011;45412;54.472;18.464;2023-07-29T14:01:49;5.50;;;2.00;;
59587;SDS011;45412;54.472;18.464;2023-07-29T14:04:36;6.30;;;2.10;;
59587;SDS011;45412;54.472;18.464;2023-07-29T14:07:24;7.70;;;2.20;;
59587;SDS011;45412;54.472;18.464;2023-07-29T14:10:12;5.80;;;1.90;;
59587;SDS011;45412;54.472;18.464;2023-07-29T14:12:59;5.70;;;1.80;;
59587;SDS011;45412;54.472;18.464;2023-07-29T14:15:46;7.70;;;2.20;;
59587;SDS011;45412;54.472;18.464;2023-07-29T14:18:33;6.90;;;1.90;;
59587;SDS011;45412;54.472;18.464;2023-07-29T14:21:30;5.80;;;1.80;;
59587;SDS011;45412;54.472;18.464;2023-07-29T14:24:52;5.80;;;1.90;;
59587;SDS011;45412;54.472;18.464;2023-07-29T14:27:40;5.90;;;1.80;;
59587;SDS011;45412;54.472;18.464;2023-07-29T14:30:27;5.50;;;1.90;;
59587;SDS011;45412;54.472;18.464;2023-07-29T14:33:16;7.30;;;2.10;;
59587;SDS011;45412;54.472;18.464;2023-07-29T14:36:03;5.60;;;2.10;;
59587;SDS011;45412;54.472;18.464;2023-07-29T14:38:50;5.50;;;2.00;;
59587;SDS011;45412;54.472;18.464;2023-07-29T14:41:36;5.60;;;2.00;;
59587;SDS011;45412;54.472;18.464;2023-07-29T14:44:23;5.60;;;2.00;;
59587;SDS011;45412;54.472;18.464;2023-07-29T14:47:13;6.50;;;2.30;;
59587;SDS011;45412;54.472;18.464;2023-07-29T14:49:59;6.10;;;2.20;;
59587;SDS011;45412;54.472;18.464;2023-07-29T14:52:50;6.40;;;2.30;;
59587;SDS011;45412;54.472;18.464;2023-07-29T14:55:37;6.00;;;2.20;;
59587;SDS011;45412;54.472;18.464;2023-07-29T14:58:25;6.40;;;2.10;;
59587;SDS011;45412;54.472;18.464;2023-07-29T15:01:12;6.40;;;2.10;;
59587;SDS011;45412;54.472;18.464;2023-07-29T15:04:03;6.10;;;2.10;;
59587;SDS011;45412;54.472;18.464;2023-07-29T15:06:50;6.80;;;2.20;;
59587;SDS011;45412;54.472;18.464;2023-07-29T15:09:37;7.30;;;2.10;;
59587;SDS011;45412;54.472;18.464;2023-07-29T15:12:24;6.70;;;2.30;;
59587;SDS011;45412;54.472;18.464;2023-07-29T15:15:11;6.20;;;2.00;;
59587;SDS011;45412;54.472;18.464;2023-07-29T15:17:58;6.10;;;2.20;;
59587;SDS011;45412;54.472;18.464;2023-07-29T15:20:49;6.60;;;2.20;;
59587;SDS011;45412;54.472;18.464;2023-07-29T15:23:36;6.20;;;2.00;;
59587;SDS011;45412;54.472;18.464;2023-07-29T15:26:26;8.70;;;3.00;;
59587;SDS011;45412;54.472;18.464;2023-07-29T15:29:13;7.90;;;2.50;;
59587;SDS011;45412;54.472;18.464;2023-07-29T15:32:02;6.90;;;2.60;;
59587;SDS011;45412;54.472;18.464;2023-07-29T15:34:49;6.10;;;2.30;;
59587;SDS011;45412;54.472;18.464;2023-07-29T15:37:36;8.50;;;2.80;;
59587;SDS011;45412;54.472;18.464;2023-07-29T15:40:24;7.80;;;3.20;;
59587;SDS011;45412;54.472;18.464;2023-07-29T15:43:12;8.40;;;3.20;;
59587;SDS011;45412;54.472;18.464;2023-07-29T15:45:59;7.80;;;2.90;;
59587;SDS011;45412;54.472;18.464;2023-07-29T15:48:46;9.20;;;3.40;;
59587;SDS011;45412;54.472;18.464;2023-07-29T15:51:33;9.40;;;3.10;;
59587;SDS011;45412;54.472;18.464;2023-07-29T15:54:20;9.50;;;3.20;;
59587;SDS011;45412;54.472;18.464;2023-07-29T15:57:07;8.80;;;3.30;;
59587;SDS011;45412;54.472;18.464;2023-07-29T15:59:55;8.40;;;3.30;;
59587;SDS011;45412;54.472;18.464;2023-07-29T16:02:42;7.40;;;2.70;;
59587;SDS011;45412;54.472;18.464;2023-07-29T16:05:29;7.80;;;3.00;;
59587;SDS011;45412;54.472;18.464;2023-07-29T16:08:16;7.90;;;3.10;;
59587;SDS011;45412;54.472;18.464;2023-07-29T16:11:08;9.30;;;3.00;;
59587;SDS011;45412;54.472;18.464;2023-07-29T16:13:55;6.80;;;2.80;;
59587;SDS011;45412;54.472;18.464;2023-07-29T16:16:41;8.40;;;3.30;;
59587;SDS011;45412;54.472;18.464;2023-07-29T16:19:29;8.10;;;2.80;;
59587;SDS011;45412;54.472;18.464;2023-07-29T16:22:18;7.80;;;2.80;;
59587;SDS011;45412;54.472;18.464;2023-07-29T16:25:04;7.50;;;2.80;;
59587;SDS011;45412;54.472;18.464;2023-07-29T16:27:52;8.10;;;3.00;;
59587;SDS011;45412;54.472;18.464;2023-07-29T16:30:39;8.60;;;2.80;;
59587;SDS011;45412;54.472;18.464;2023-07-29T16:33:26;6.90;;;3.00;;
59587;SDS011;45412;54.472;18.464;2023-07-29T16:36:12;7.20;;;3.00;;
59587;SDS011;45412;54.472;18.464;2023-07-29T16:39:00;6.90;;;2.30;;
59587;SDS011;45412;54.472;18.464;2023-07-29T16:41:54;9.80;;;3.10;;
59587;SDS011;45412;54.472;18.464;2023-07-29T16:44:45;8.60;;;2.90;;
59587;SDS011;45412;54.472;18.464;2023-07-29T16:47:33;7.40;;;2.70;;
59587;SDS011;45412;54.472;18.464;2023-07-29T16:50:20;7.10;;;2.40;;
59587;SDS011;45412;54.472;18.464;2023-07-29T16:53:07;7.90;;;2.90;;
59587;SDS011;45412;54.472;18.464;2023-07-29T16:55:55;7.20;;;2.80;;
59587;SDS011;45412;54.472;18.464;2023-07-29T16:59:02;6.90;;;2.60;;
59587;SDS011;45412;54.472;18.464;2023-07-29T17:01:49;7.00;;;2.70;;